This is the latest recevied weather packets stored in our database for station/object GBTWP-2. If no packets are shown the sender has not sent any weather packets the latest 10 day(s).
| Time | Temp. | Humidity | Pressure | Rain* | Wind** | Luminosity | Snow |
|---|---|---|---|---|---|---|---|
| 1787429819 | 17.22° C | 92% | 1013.7 hPa | 3.05 mm | - | 13 W/m² | - |
| 1787429520 | 17.22° C | 92% | 1013.9 hPa | 7.11 mm | - | 13 W/m² | - |
| 1787429220 | 17.22° C | 91% | 1014 hPa | 10.67 mm | - | 14 W/m² | - |
| 1787428920 | 17.22° C | 90% | 1013.8 hPa | 13.72 mm | - | 16 W/m² | - |
| 1787428620 | 17.78° C | 87% | 1013.6 hPa | 12.7 mm | - | 21 W/m² | - |
| 1787428320 | 19.44° C | 79% | 1013.6 hPa | 4.83 mm | - | 16 W/m² | - |
| 1787428019 | 21.11° C | 69% | 1013.6 hPa | 0 mm | - | 11 W/m² | - |
| 1787427720 | 22.22° C | 66% | 1013.3 hPa | 0 mm | - | 14 W/m² | - |
| 1787427420 | 23.89° C | 73% | 1012.9 hPa | 0 mm | - | 15 W/m² | - |
| 1787427120 | 23.89° C | 74% | 1012.3 hPa | 0 mm | - | 115 W/m² | - |
| 1787426819 | 24.44° C | 71% | 1012.3 hPa | 0 mm | - | 252 W/m² | - |
| 1787426520 | 24.44° C | 72% | 1012.5 hPa | 0 mm | - | 304 W/m² | - |
| 1787426220 | 24.44° C | 72% | 1012.7 hPa | 0 mm | - | 432 W/m² | - |
| 1787425920 | 23.89° C | 72% | 1012.7 hPa | 0 mm | - | 552 W/m² | - |
| 1787425620 | 23.89° C | 73% | 1012.7 hPa | 0 mm | - | 272 W/m² | - |
| 1787425320 | 23.89° C | 73% | 1012.6 hPa | 0 mm | - | 167 W/m² | - |
| 1787425020 | 24.44° C | 73% | 1013 hPa | 0 mm | - | 235 W/m² | - |
| 1787424720 | 23.89° C | 72% | 1012.9 hPa | 0 mm | - | 244 W/m² | - |
| 1787424420 | 23.89° C | 72% | 1013.2 hPa | 0 mm | - | 300 W/m² | - |
| 1787424120 | 23.89° C | 70% | 1013 hPa | 0 mm | - | 224 W/m² | - |
| 1787423820 | 24.44° C | 68% | 1013 hPa | 0 mm | - | 207 W/m² | - |
| 1787423519 | 24.44° C | 69% | 1013 hPa | 0 mm | - | 287 W/m² | - |
| 1787423219 | 23.89° C | 66% | 1013 hPa | 0 mm | - | 311 W/m² | - |
| 1787422920 | 24.44° C | 69% | 1013.1 hPa | 0 mm | - | 649 W/m² | - |
| 1787422619 | 24.44° C | 69% | 1013.1 hPa | 0 mm | - | 716 W/m² | - |
* Rain latest hour (hover to see other rain measurements)
** Current wind speed in m/s (hover to see current wind gust speed)